Time;durP1;ratioP1;P1;durP2;ratioP2;P2;SDS_P1;SDS_P2;PMS_P1;PMS_P2;Temp;Humidity;BMP_temperature;BMP_pressure;BME280_temperature;BME280_humidity;BME280_pressure;Samples;Min_cycle;Max_cycle;Signal;HPM_P1;HPM_P2
2023/05/22 00:00:22;;;;;;;14.27;12.77;;;14.80;99.90;;;;;;5095670;28;20498;-70
2023/05/22 00:02:49;;;;;;;17.63;14.60;;;14.70;99.90;;;;;;5096476;28;20186;-70
2023/05/22 00:05:17;;;;;;;14.57;13.13;;;14.70;99.90;;;;;;5089254;28;20420;-70
2023/05/22 00:07:44;;;;;;;17.93;13.53;;;14.60;99.90;;;;;;5076269;28;20383;-70
2023/05/22 00:10:10;;;;;;;18.83;14.33;;;14.60;99.90;;;;;;5075208;28;20788;-70
2023/05/22 00:12:36;;;;;;;17.50;13.77;;;14.50;99.90;;;;;;5075307;28;20456;-70
2023/05/22 00:15:03;;;;;;;17.50;13.70;;;14.50;99.90;;;;;;5076185;28;20397;-71
2023/05/22 00:17:29;;;;;;;16.90;12.50;;;14.50;99.90;;;;;;5074966;28;20500;-70
2023/05/22 00:19:55;;;;;;;26.03;13.80;;;14.40;99.90;;;;;;5075237;28;20539;-71
2023/05/22 00:22:21;;;;;;;15.70;13.67;;;14.40;99.90;;;;;;5092112;28;20521;-71
2023/05/22 00:24:47;;;;;;;16.73;13.13;;;14.40;99.90;;;;;;5096188;28;20419;-71
2023/05/22 00:27:13;;;;;;;15.90;13.90;;;14.30;99.90;;;;;;5096078;28;20417;-71
2023/05/22 00:29:39;;;;;;;22.60;14.90;;;14.20;99.90;;;;;;5092512;28;20435;-71
2023/05/22 00:32:05;;;;;;;20.20;14.10;;;14.10;99.90;;;;;;5092978;28;20201;-70
2023/05/22 00:34:31;;;;;;;17.70;14.40;;;14.00;99.90;;;;;;5095982;28;20236;-70
2023/05/22 00:36:57;;;;;;;19.70;14.30;;;13.90;99.90;;;;;;5095866;28;20432;-70
2023/05/22 00:39:22;;;;;;;23.90;13.27;;;13.90;99.90;;;;;;5095835;28;20395;-70
2023/05/22 00:42:17;;;;;;;;;;;;;;;;;;;;;
2023/05/22 00:44:43;;;;;;;16.23;14.40;;;13.80;99.90;;;;;;5075674;28;20177;-70
2023/05/22 00:47:09;;;;;;;16.33;14.03;;;13.70;99.90;;;;;;5074996;28;20409;-71
2023/05/22 00:49:35;;;;;;;19.77;13.60;;;13.70;99.90;;;;;;5075058;28;20407;-72
2023/05/22 00:52:01;;;;;;;20.00;13.50;;;13.70;99.90;;;;;;5074343;28;20535;-70
2023/05/22 00:54:29;;;;;;;15.97;14.10;;;13.70;99.90;;;;;;5075382;28;20210;-70
2023/05/22 00:56:56;;;;;;;14.27;12.73;;;13.60;99.90;;;;;;5079344;28;20427;-70
2023/05/22 00:59:22;;;;;;;15.97;12.90;;;13.60;99.90;;;;;;5094958;28;20396;-70
2023/05/22 01:01:48;;;;;;;16.37;14.20;;;13.50;99.90;;;;;;5094382;28;20431;-71
2023/05/22 01:04:14;;;;;;;18.90;15.27;;;13.40;99.90;;;;;;5095329;28;20459;-71
2023/05/22 01:06:40;;;;;;;15.43;13.30;;;13.40;99.90;;;;;;5093942;28;20265;-72
2023/05/22 01:09:06;;;;;;;16.63;14.30;;;13.40;99.90;;;;;;5095051;28;20866;-70
2023/05/22 01:11:38;;;;;;;23.93;15.00;;;13.40;99.90;;;;;;5081008;28;20197;-71
2023/05/22 01:14:17;;;;;;;15.07;13.50;;;13.40;99.90;;;;;;5073120;28;20483;-70
2023/05/22 01:16:58;;;;;;;17.00;14.10;;;13.40;99.90;;;;;;5074909;28;20400;-71
2023/05/22 01:19:39;;;;;;;16.43;12.40;;;13.40;99.90;;;;;;5074909;28;20943;-70
2023/05/22 01:22:22;;;;;;;14.20;12.80;;;13.40;99.90;;;;;;5073742;28;20400;-70
2023/05/22 01:25:35;;;;;;;21.17;14.40;;;13.20;99.90;;;;;;5073367;28;20556;-71
2023/05/22 01:28:00;;;;;;;15.90;13.27;;;13.10;99.90;;;;;;5055881;28;20455;-71
2023/05/22 01:30:48;;;;;;;19.43;13.90;;;13.20;99.90;;;;;;5072739;28;20452;-70
2023/05/22 01:33:16;;;;;;;16.13;13.80;;;13.10;99.90;;;;;;5079699;28;20205;-71
2023/05/22 01:35:46;;;;;;;17.13;14.30;;;13.10;99.90;;;;;;5094746;28;20403;-71
2023/05/22 01:38:13;;;;;;;14.57;13.00;;;13.10;99.90;;;;;;5093543;28;20517;-70
2023/05/22 01:40:39;;;;;;;16.13;12.83;;;13.20;99.90;;;;;;5092179;28;20412;-71
2023/05/22 01:43:06;;;;;;;16.63;14.93;;;13.10;99.90;;;;;;5093341;28;20753;-70
2023/05/22 01:45:33;;;;;;;16.40;13.40;;;13.20;99.90;;;;;;5094534;28;20396;-70
2023/05/22 01:47:59;;;;;;;14.80;12.30;;;13.20;99.90;;;;;;5094372;28;20449;-70
2023/05/22 01:50:25;;;;;;;15.80;12.40;;;13.30;99.90;;;;;;5079479;28;20395;-70
2023/05/22 01:53:02;;;;;;;14.93;12.57;;;13.40;99.90;;;;;;5072532;28;20984;-70
2023/05/22 01:55:39;;;;;;;15.53;12.47;;;13.40;99.90;;;;;;5073092;28;20519;-70
2023/05/22 01:58:15;;;;;;;16.13;12.00;;;13.50;99.90;;;;;;5073482;28;20400;-70
2023/05/22 02:00:44;;;;;;;13.83;10.47;;;13.50;99.90;;;;;;5072981;28;20458;-70
2023/05/22 02:03:17;;;;;;;14.30;11.33;;;13.50;99.90;;;;;;5079128;28;20450;-70
2023/05/22 02:05:44;;;;;;;12.73;11.50;;;13.40;99.90;;;;;;5094398;28;20431;-70
2023/05/22 02:08:12;;;;;;;11.97;10.80;;;13.40;99.90;;;;;;5094261;28;20760;-71
2023/05/22 02:10:39;;;;;;;13.10;11.10;;;13.40;99.90;;;;;;5093286;28;20460;-71
2023/05/22 02:13:05;;;;;;;14.03;11.60;;;13.50;99.90;;;;;;5094031;28;20451;-70
2023/05/22 02:15:32;;;;;;;17.97;12.37;;;13.50;99.90;;;;;;5094192;28;20403;-69
2023/05/22 02:17:59;;;;;;;15.10;12.00;;;13.50;99.90;;;;;;5086012;28;20428;-71
2023/05/22 02:20:24;;;;;;;12.60;10.83;;;13.50;99.90;;;;;;5093087;28;20476;-70
2023/05/22 02:22:50;;;;;;;13.77;11.53;;;13.50;99.90;;;;;;5092862;28;20532;-70
2023/05/22 02:25:16;;;;;;;13.27;11.70;;;13.50;99.90;;;;;;5093874;28;20184;-70
2023/05/22 02:27:50;;;;;;;12.63;10.27;;;13.30;99.90;;;;;;5092571;28;20177;-70
2023/05/22 02:30:16;;;;;;;15.80;12.60;;;13.30;99.90;;;;;;5091869;28;20204;-72
2023/05/22 02:32:42;;;;;;;12.10;10.90;;;13.30;99.90;;;;;;5092575;28;20516;-71
2023/05/22 02:35:09;;;;;;;16.33;11.53;;;13.30;99.90;;;;;;5093242;28;20624;-72
2023/05/22 02:37:37;;;;;;;17.70;11.57;;;13.40;99.90;;;;;;5093596;28;20396;-70
2023/05/22 02:40:05;;;;;;;12.27;11.03;;;13.40;99.90;;;;;;5092460;28;20928;-70
2023/05/22 02:42:33;;;;;;;13.73;12.40;;;13.30;99.90;;;;;;5093426;28;20480;-72
2023/05/22 02:44:59;;;;;;;15.70;11.03;;;13.30;99.90;;;;;;5093929;28;20431;-70
2023/05/22 02:47:25;;;;;;;14.57;11.27;;;13.30;99.90;;;;;;5084531;28;20520;-70
2023/05/22 02:49:51;;;;;;;11.73;10.50;;;13.30;99.90;;;;;;5073303;28;20404;-70
2023/05/22 02:52:17;;;;;;;16.20;11.73;;;13.30;99.90;;;;;;5072107;28;20944;-71
2023/05/22 02:54:43;;;;;;;14.43;11.43;;;13.20;99.90;;;;;;5072963;28;20172;-71
2023/05/22 02:57:09;;;;;;;16.13;11.50;;;13.20;99.90;;;;;;5073295;28;20479;-70
2023/05/22 02:59:35;;;;;;;12.07;10.83;;;13.20;99.90;;;;;;5073367;28;20558;-70
2023/05/22 03:02:02;;;;;;;20.77;10.83;;;13.10;99.90;;;;;;5077364;28;20848;-70
2023/05/22 03:04:28;;;;;;;15.17;11.97;;;13.10;99.90;;;;;;5093484;28;20477;-72
2023/05/22 03:06:54;;;;;;;12.20;11.00;;;13.10;99.90;;;;;;5093477;28;20803;-71
2023/05/22 03:09:20;;;;;;;12.33;10.80;;;13.20;99.90;;;;;;5093414;28;20927;-70
2023/05/22 03:11:46;;;;;;;18.00;11.50;;;13.20;99.90;;;;;;5090877;28;20538;-70
2023/05/22 03:14:12;;;;;;;15.13;11.77;;;13.20;99.90;;;;;;5093405;28;20415;-70
2023/05/22 03:16:38;;;;;;;15.50;11.60;;;13.30;99.90;;;;;;5077678;28;20185;-71
2023/05/22 03:19:11;;;;;;;13.80;11.07;;;13.30;99.90;;;;;;5088708;28;20181;-70
2023/05/22 03:21:37;;;;;;;14.50;12.40;;;13.30;99.90;;;;;;5071173;28;20416;-71
2023/05/22 03:24:03;;;;;;;12.40;11.00;;;13.30;99.90;;;;;;5075473;28;20532;-69
2023/05/22 03:26:29;;;;;;;15.80;12.27;;;13.40;99.90;;;;;;5077078;28;20443;-70
2023/05/22 03:28:56;;;;;;;15.57;11.53;;;13.30;99.90;;;;;;5076837;28;20837;-70
2023/05/22 03:31:26;;;;;;;15.57;13.97;;;13.30;99.90;;;;;;5088306;28;20554;-70
2023/05/22 03:33:52;;;;;;;13.23;10.77;;;13.40;99.90;;;;;;5096935;28;20740;-70
2023/05/22 03:36:20;;;;;;;18.70;13.33;;;13.40;99.90;;;;;;5096871;28;20477;-70
2023/05/22 03:38:46;;;;;;;13.67;12.13;;;13.40;99.90;;;;;;5097077;28;20545;-71
2023/05/22 03:41:12;;;;;;;12.87;10.37;;;13.40;99.90;;;;;;5096059;28;20457;-70
2023/05/22 03:43:37;;;;;;;19.43;11.23;;;13.40;99.90;;;;;;5095966;28;20402;-70
2023/05/22 03:46:03;;;;;;;13.63;10.70;;;13.50;99.90;;;;;;5096970;28;20476;-71
2023/05/22 03:48:30;;;;;;;12.83;11.43;;;13.50;99.90;;;;;;5096633;28;20596;-72
2023/05/22 03:50:55;;;;;;;11.90;10.47;;;13.60;99.90;;;;;;5095369;28;20193;-71
2023/05/22 03:53:21;;;;;;;12.53;10.77;;;13.50;99.90;;;;;;5095773;28;20455;-70
2023/05/22 03:55:47;;;;;;;12.23;10.57;;;13.50;99.90;;;;;;5096882;28;20227;-70
2023/05/22 03:58:13;;;;;;;13.03;9.67;;;13.60;99.90;;;;;;5095401;28;20169;-70
2023/05/22 04:00:38;;;;;;;15.60;11.97;;;13.60;99.90;;;;;;5085934;28;20181;-71
2023/05/22 04:03:11;;;;;;;14.83;10.63;;;13.60;99.90;;;;;;5076164;28;20186;-71
2023/05/22 04:05:37;;;;;;;11.57;9.93;;;13.60;99.90;;;;;;5076373;28;20612;-70
2023/05/22 04:08:04;;;;;;;12.23;10.07;;;13.60;99.90;;;;;;5075809;28;20881;-70
2023/05/22 04:10:30;;;;;;;12.90;9.93;;;13.60;99.90;;;;;;5075414;28;20431;-70
2023/05/22 04:12:58;;;;;;;11.93;10.20;;;13.70;99.90;;;;;;5076026;28;20448;-71
2023/05/22 04:15:24;;;;;;;14.67;9.00;;;13.80;99.90;;;;;;5079655;28;20427;-70
2023/05/22 04:17:50;;;;;;;12.20;9.27;;;13.80;99.90;;;;;;5095210;28;20413;-71
2023/05/22 04:20:16;;;;;;;11.10;8.83;;;13.90;99.90;;;;;;5095308;28;20403;-70
2023/05/22 04:22:44;;;;;;;13.83;10.13;;;13.80;99.90;;;;;;5096164;28;20188;-70
2023/05/22 04:25:10;;;;;;;11.47;9.90;;;13.70;99.90;;;;;;5095791;28;20519;-71
2023/05/22 04:27:39;;;;;;;16.50;10.87;;;13.70;99.90;;;;;;5095588;28;20515;-70
2023/05/22 04:30:07;;;;;;;12.53;11.17;;;13.70;99.90;;;;;;5094554;28;20439;-75
2023/05/22 04:32:35;;;;;;;13.50;11.00;;;13.70;99.90;;;;;;5095886;28;20451;-70
2023/05/22 04:35:04;;;;;;;10.30;9.00;;;13.80;99.90;;;;;;5094910;28;20396;-71
2023/05/22 04:37:30;;;;;;;11.43;9.87;;;13.80;99.90;;;;;;5095925;28;20407;-70
2023/05/22 04:40:01;;;;;;;14.00;10.90;;;13.80;99.90;;;;;;5095995;28;20953;-71
2023/05/22 04:42:29;;;;;;;14.60;9.90;;;13.80;99.90;;;;;;5090048;28;20475;-71
2023/05/22 04:44:56;;;;;;;10.83;9.77;;;13.80;99.90;;;;;;5075191;28;20423;-70
2023/05/22 04:47:23;;;;;;;14.50;10.30;;;13.90;99.90;;;;;;5074294;28;20761;-70
2023/05/22 04:49:50;;;;;;;14.23;10.10;;;13.90;99.90;;;;;;5075287;28;20436;-70
2023/05/22 04:52:16;;;;;;;12.40;8.77;;;13.90;99.90;;;;;;5074553;28;20991;-69
2023/05/22 04:54:45;;;;;;;11.97;9.90;;;14.00;99.90;;;;;;5074030;28;20480;-70
2023/05/22 04:57:11;;;;;;;10.37;9.23;;;14.00;99.90;;;;;;5087258;28;20514;-70
2023/05/22 04:59:37;;;;;;;14.10;9.73;;;14.10;99.90;;;;;;5094528;28;20478;-70
2023/05/22 05:02:16;;;;;;;10.33;9.27;;;14.00;99.90;;;;;;5094448;28;20578;-70
2023/05/22 05:04:42;;;;;;;14.80;9.67;;;14.10;99.90;;;;;;5094480;28;20473;-70
2023/05/22 05:07:08;;;;;;;13.67;10.30;;;14.10;99.90;;;;;;5095288;28;20415;-70
2023/05/22 05:09:34;;;;;;;10.23;9.10;;;14.10;99.90;;;;;;5095251;28;20403;-71
2023/05/22 05:12:01;;;;;;;11.57;9.43;;;14.10;99.90;;;;;;5088127;28;20542;-70
2023/05/22 05:14:29;;;;;;;13.97;10.87;;;14.20;99.90;;;;;;5074949;28;20470;-70
2023/05/22 05:16:57;;;;;;;12.10;10.33;;;14.30;99.90;;;;;;5074961;28;20408;-70
2023/05/22 05:19:23;;;;;;;12.83;8.83;;;14.30;99.90;;;;;;5074227;28;20491;-71
2023/05/22 05:21:49;;;;;;;11.90;9.80;;;14.40;99.90;;;;;;5073800;28;20448;-70
2023/05/22 05:24:20;;;;;;;12.87;9.53;;;14.50;99.90;;;;;;5073377;28;20221;-70
2023/05/22 05:26:46;;;;;;;12.50;9.90;;;14.50;99.90;;;;;;5079302;28;20591;-70
2023/05/22 05:29:12;;;;;;;10.30;9.30;;;14.60;99.90;;;;;;5094887;28;20400;-70
2023/05/22 05:31:38;;;;;;;11.93;10.20;;;14.70;99.90;;;;;;5092621;28;20443;-70
2023/05/22 05:34:04;;;;;;;11.43;9.57;;;14.70;99.90;;;;;;5094705;28;20185;-71
2023/05/22 05:36:30;;;;;;;12.67;10.43;;;14.80;99.90;;;;;;5094955;28;20879;-70
2023/05/22 05:38:57;;;;;;;9.60;8.70;;;14.90;99.90;;;;;;5094149;28;20534;-71
2023/05/22 05:41:26;;;;;;;12.80;9.07;;;15.00;99.90;;;;;;5092428;28;20930;-69
2023/05/22 05:43:51;;;;;;;9.47;8.60;;;15.10;99.90;;;;;;5094451;28;20794;-70
2023/05/22 05:46:18;;;;;;;19.20;8.67;;;15.20;99.90;;;;;;5094310;28;20406;-69
2023/05/22 05:48:44;;;;;;;20.90;8.10;;;15.30;99.90;;;;;;5080684;28;20202;-69
2023/05/22 05:51:10;;;;;;;11.57;8.13;;;15.50;99.90;;;;;;5091058;28;20420;-69
2023/05/22 05:53:36;;;;;;;7.90;7.20;;;15.60;99.90;;;;;;5086808;28;20443;-71
2023/05/22 05:56:02;;;;;;;12.03;7.70;;;15.70;99.90;;;;;;5091552;28;20170;-70
2023/05/22 05:58:31;;;;;;;7.57;6.80;;;15.80;99.90;;;;;;5093634;28;20780;-69
2023/05/22 06:00:56;;;;;;;9.00;6.87;;;16.00;99.90;;;;;;5093523;28;20902;-69
2023/05/22 06:03:24;;;;;;;8.00;7.30;;;16.20;99.90;;;;;;5094170;28;20419;-70
2023/05/22 06:05:50;;;;;;;11.50;7.57;;;16.30;99.90;;;;;;5094166;28;20649;-69
2023/05/22 06:08:18;;;;;;;7.40;6.70;;;16.50;99.90;;;;;;5092940;28;20438;-69
2023/05/22 06:10:45;;;;;;;7.83;6.97;;;16.60;99.90;;;;;;5093433;28;20419;-70
2023/05/22 06:13:12;;;;;;;10.33;7.83;;;16.80;99.90;;;;;;5093973;28;20444;-69
2023/05/22 06:15:45;;;;;;;7.97;7.17;;;16.90;99.90;;;;;;5092617;28;20480;-69
2023/05/22 06:18:12;;;;;;;6.87;6.27;;;17.10;99.90;;;;;;5094036;28;20395;-72
2023/05/22 06:20:38;;;;;;;6.77;6.27;;;17.30;99.90;;;;;;5093163;28;20396;-70
2023/05/22 06:23:04;;;;;;;7.40;6.37;;;17.40;94.80;;;;;;5087185;28;20447;-70
2023/05/22 06:25:30;;;;;;;5.83;5.33;;;17.60;86.80;;;;;;5089855;28;20217;-69
2023/05/22 06:27:55;;;;;;;8.07;5.80;;;17.80;71.10;;;;;;5093800;28;20244;-72
2023/05/22 06:30:21;;;;;;;9.27;6.47;;;17.90;65.40;;;;;;5092878;28;20169;-70
2023/05/22 06:32:47;;;;;;;8.77;6.27;;;18.00;38.20;;;;;;5093307;28;20201;-71
2023/05/22 06:35:13;;;;;;;9.70;6.00;;;18.10;8.80;;;;;;5093650;28;20900;-72
2023/05/22 06:37:41;;;;;;;6.20;5.70;;;18.20;16.40;;;;;;5091664;28;20561;-71
2023/05/22 06:40:07;;;;;;;6.70;6.20;;;18.20;5.80;;;;;;5092756;28;20391;-72
2023/05/22 06:42:33;;;;;;;7.13;6.53;;;18.30;3.00;;;;;;5093616;28;20795;-67
2023/05/22 06:44:59;;;;;;;7.23;5.97;;;18.30;1.00;;;;;;5093679;28;20399;-67
2023/05/22 06:47:25;;;;;;;7.87;6.17;;;18.40;1.00;;;;;;5093615;28;20257;-71
2023/05/22 06:49:51;;;;;;;6.00;5.40;;;18.50;1.00;;;;;;5092424;28;20200;-70
2023/05/22 06:52:16;;;;;;;7.43;6.00;;;18.50;1.00;;;;;;5091845;28;20932;-71
2023/05/22 06:54:43;;;;;;;8.30;6.03;;;18.60;1.00;;;;;;5093422;28;20177;-70
2023/05/22 06:57:09;;;;;;;8.80;6.60;;;18.70;1.00;;;;;;5093086;28;20158;-70
2023/05/22 06:59:35;;;;;;;6.77;4.90;;;18.80;1.00;;;;;;5093562;28;20909;-70
2023/05/22 07:02:01;;;;;;;12.63;6.33;;;18.90;1.00;;;;;;5092602;28;20404;-70
2023/05/22 07:04:27;;;;;;;11.57;6.60;;;18.90;1.00;;;;;;5084688;28;20198;-72
2023/05/22 07:06:52;;;;;;;7.57;5.20;;;19.00;1.00;;;;;;5074209;28;20174;-71
2023/05/22 07:09:18;;;;;;;7.40;5.30;;;19.10;1.00;;;;;;5093777;28;20208;-71
2023/05/22 07:11:45;;;;;;;5.97;5.33;;;19.20;1.00;;;;;;5091737;28;20652;-71
2023/05/22 07:14:11;;;;;;;6.80;5.20;;;19.30;1.00;;;;;;5093333;28;20411;-71
2023/05/22 07:16:39;;;;;;;5.90;5.30;;;19.50;1.00;;;;;;5092134;28;21093;-71
2023/05/22 07:19:05;;;;;;;12.00;5.37;;;19.60;1.00;;;;;;5093401;28;20162;-71
2023/05/22 07:21:33;;;;;;;7.70;5.67;;;19.70;1.00;;;;;;5092396;28;20392;-71
2023/05/22 07:24:01;;;;;;;6.20;5.60;;;19.90;1.00;;;;;;5093128;28;20946;-71
2023/05/22 07:26:28;;;;;;;6.40;5.80;;;20.00;1.00;;;;;;5093418;28;20884;-72
2023/05/22 07:28:54;;;;;;;6.90;5.23;;;19.90;1.00;;;;;;5092004;28;20884;-71
2023/05/22 07:31:20;;;;;;;5.70;5.10;;;19.90;1.00;;;;;;5090624;28;20455;-70
2023/05/22 07:33:45;;;;;;;7.93;4.70;;;20.00;1.00;;;;;;5093095;28;20193;-71
2023/05/22 07:36:11;;;;;;;6.63;6.00;;;20.00;1.00;;;;;;5093215;28;20165;-71
2023/05/22 07:38:37;;;;;;;6.87;5.50;;;20.00;1.00;;;;;;5093199;28;20685;-71
2023/05/22 07:41:03;;;;;;;6.57;5.13;;;20.20;1.00;;;;;;5091142;28;20166;-70
2023/05/22 07:43:30;;;;;;;6.00;5.50;;;20.30;1.00;;;;;;5091560;28;20658;-71
2023/05/22 07:45:56;;;;;;;9.43;5.20;;;20.50;1.00;;;;;;5072988;28;20396;-71
2023/05/22 07:48:21;;;;;;;5.67;4.63;;;20.60;1.00;;;;;;5072153;28;20397;-70
2023/05/22 07:50:47;;;;;;;9.00;5.40;;;20.80;1.00;;;;;;5071816;28;20166;-73
2023/05/22 07:53:13;;;;;;;4.40;4.10;;;20.90;1.00;;;;;;5072611;28;20226;-70
2023/05/22 07:55:39;;;;;;;5.23;4.80;;;21.10;1.00;;;;;;5072807;28;20166;-71
2023/05/22 07:58:07;;;;;;;7.63;4.10;;;21.30;1.00;;;;;;5080689;28;20434;-69
2023/05/22 08:00:33;;;;;;;5.23;4.80;;;21.50;1.00;;;;;;5092046;28;20158;-70
2023/05/22 08:02:58;;;;;;;7.83;4.50;;;21.60;1.00;;;;;;5091788;28;20458;-72
2023/05/22 08:05:24;;;;;;;8.47;4.57;;;21.70;1.00;;;;;;5092425;28;20170;-72
2023/05/22 08:07:49;;;;;;;5.20;4.60;;;21.80;1.00;;;;;;5091892;28;20177;-72
2023/05/22 08:10:16;;;;;;;5.30;4.80;;;21.80;1.00;;;;;;5095847;28;20223;-72
2023/05/22 08:12:42;;;;;;;4.83;4.40;;;21.90;1.00;;;;;;5096387;28;20274;-69
2023/05/22 08:15:08;;;;;;;4.60;4.20;;;22.00;1.00;;;;;;5077182;28;20432;-71
2023/05/22 08:17:34;;;;;;;5.37;4.90;;;22.20;1.00;;;;;;5076170;28;20222;-70
2023/05/22 08:20:00;;;;;;;4.20;3.90;;;22.30;1.00;;;;;;5075982;28;20392;-73
2023/05/22 08:22:28;;;;;;;11.83;4.43;;;22.40;1.00;;;;;;5084819;28;20653;-72
2023/05/22 08:24:54;;;;;;;5.03;4.13;;;22.50;1.00;;;;;;5094322;28;20181;-72
2023/05/22 08:27:19;;;;;;;7.53;4.60;;;22.60;1.00;;;;;;5096151;28;20430;-71
2023/05/22 08:29:45;;;;;;;4.33;3.93;;;22.80;1.00;;;;;;5085764;28;20178;-69
2023/05/22 08:32:11;;;;;;;8.67;4.63;;;23.00;1.00;;;;;;5072679;28;20735;-70
2023/05/22 08:34:36;;;;;;;4.10;3.80;;;23.30;1.00;;;;;;5083695;28;20193;-69
2023/05/22 08:37:03;;;;;;;5.00;4.57;;;23.40;1.00;;;;;;5076980;28;20219;-71
2023/05/22 08:39:30;;;;;;;5.40;4.47;;;23.40;1.00;;;;;;5088112;28;20197;-72
2023/05/22 08:41:55;;;;;;;3.20;3.00;;;23.40;1.00;;;;;;5074773;28;20403;-71
2023/05/22 08:44:21;;;;;;;6.27;3.93;;;23.50;1.00;;;;;;5075420;28;20440;-72
2023/05/22 08:46:48;;;;;;;4.60;4.00;;;23.60;1.00;;;;;;5075227;28;20509;-71
2023/05/22 08:49:17;;;;;;;7.43;4.10;;;23.80;1.00;;;;;;5078496;28;20706;-71
2023/05/22 08:51:46;;;;;;;7.77;3.97;;;23.90;99.90;;;;;;5094681;28;20451;-71
2023/05/22 08:54:14;;;;;;;3.90;3.60;;;24.00;1.00;;;;;;5092763;28;20843;-71
2023/05/22 08:56:40;;;;;;;4.13;3.37;;;24.00;99.90;;;;;;5074365;28;20424;-69
2023/05/22 08:59:07;;;;;;;7.00;3.87;;;23.90;99.90;;;;;;5084886;28;20428;-71
2023/05/22 09:01:33;;;;;;;4.43;4.13;;;23.90;99.90;;;;;;5072640;28;20178;-72
2023/05/22 09:04:02;;;;;;;4.10;3.60;;;24.00;99.90;;;;;;5075368;28;20438;-72
2023/05/22 09:06:31;;;;;;;9.87;3.50;;;24.30;99.90;;;;;;5095363;28;20170;-71
2023/05/22 09:08:58;;;;;;;4.80;4.00;;;24.50;99.90;;;;;;5091809;28;20807;-71
2023/05/22 09:11:25;;;;;;;4.13;3.27;;;24.60;99.90;;;;;;5072550;28;20452;-71
2023/05/22 09:13:51;;;;;;;3.90;3.60;;;24.80;99.90;;;;;;5075829;28;20481;-72
2023/05/22 09:16:18;;;;;;;3.87;3.27;;;25.00;99.90;;;;;;5089406;28;20481;-71
2023/05/22 09:18:44;;;;;;;3.87;3.53;;;25.00;99.90;;;;;;5094558;28;20406;-73
2023/05/22 09:21:12;;;;;;;3.43;3.13;;;25.10;99.90;;;;;;5073213;28;20425;-70
2023/05/22 09:23:38;;;;;;;3.87;3.57;;;25.20;99.90;;;;;;5074463;28;20940;-71
2023/05/22 09:26:04;;;;;;;4.60;3.60;;;25.30;99.90;;;;;;5093655;28;20463;-73
2023/05/22 09:28:35;;;;;;;3.97;3.67;;;25.20;99.90;;;;;;5084536;28;20958;-70
2023/05/22 09:31:02;;;;;;;4.83;4.43;;;25.20;99.90;;;;;;5092069;28;20166;-71
2023/05/22 09:33:29;;;;;;;8.40;4.47;;;25.10;99.90;;;;;;5085381;28;20441;-72
2023/05/22 09:35:57;;;;;;;4.30;3.40;;;25.10;99.90;;;;;;5073078;28;20762;-72
2023/05/22 09:38:28;;;;;;;4.00;3.40;;;25.30;99.90;;;;;;5075428;28;20959;-73
2023/05/22 09:40:54;;;;;;;6.20;3.50;;;25.50;99.90;;;;;;5075136;28;20817;-71
2023/05/22 09:43:22;;;;;;;4.13;3.83;;;25.70;99.90;;;;;;5080880;28;20952;-69
2023/05/22 09:45:47;;;;;;;3.23;2.97;;;26.10;99.90;;;;;;5073716;28;20458;-72
2023/05/22 09:48:17;;;;;;;4.70;3.80;;;26.40;99.90;;;;;;5083392;28;20419;-70
2023/05/22 09:50:49;;;;;;;5.20;3.20;;;26.60;99.90;;;;;;5093800;28;20165;-71
2023/05/22 09:53:17;;;;;;;4.60;3.70;;;26.70;99.90;;;;;;5083262;28;20517;-72
2023/05/22 09:55:47;;;;;;;9.80;4.70;;;27.00;99.90;;;;;;5090674;28;20831;-77
2023/05/22 09:58:17;;;;;;;4.27;3.93;;;27.30;99.90;;;;;;5080160;28;20423;-71
2023/05/22 10:00:44;;;;;;;3.80;3.40;;;27.50;99.90;;;;;;5092575;28;20431;-71
2023/05/22 10:03:17;;;;;;;6.40;4.00;;;27.70;99.90;;;;;;5085803;28;20452;-73
2023/05/22 10:05:49;;;;;;;3.23;3.03;;;27.60;99.90;;;;;;5093258;28;20419;-74
2023/05/22 10:08:20;;;;;;;4.10;3.60;;;27.60;99.90;;;;;;5084758;28;20456;-73
2023/05/22 10:10:51;;;;;;;4.30;3.83;;;27.60;99.90;;;;;;5076366;28;20415;-71
2023/05/22 10:13:17;;;;;;;3.40;3.10;;;27.70;99.90;;;;;;5093077;28;20535;-73
2023/05/22 10:15:43;;;;;;;3.20;3.00;;;27.40;99.90;;;;;;5089620;28;20447;-70
2023/05/22 10:18:10;;;;;;;5.87;3.67;;;27.50;99.90;;;;;;5073302;28;20905;-74
2023/05/22 10:20:36;;;;;;;3.77;3.20;;;27.70;99.90;;;;;;5073848;28;20535;-71
2023/05/22 10:23:05;;;;;;;7.23;2.80;;;28.00;99.90;;;;;;5091524;28;20454;-72
2023/05/22 10:25:32;;;;;;;5.27;3.43;;;28.20;99.90;;;;;;5092082;28;20462;-72
2023/05/22 10:27:58;;;;;;;3.50;3.30;;;28.10;99.90;;;;;;5093953;28;20514;-75
2023/05/22 10:30:39;;;;;;;3.53;3.23;;;27.90;99.90;;;;;;5086058;28;20424;-72
2023/05/22 10:33:22;;;;;;;6.63;3.83;;;27.40;99.90;;;;;;5073806;28;20570;-72
2023/05/22 10:36:11;;;;;;;3.60;3.30;;;26.70;99.90;;;;;;5085525;28;20420;-71
2023/05/22 10:38:59;;;;;;;4.20;3.80;;;26.40;99.90;;;;;;5067716;28;20437;-73
2023/05/22 10:41:25;;;;;;;4.80;3.77;;;26.60;99.90;;;;;;5089479;28;20435;-76
2023/05/22 10:43:54;;;;;;;4.83;3.73;;;26.80;99.90;;;;;;5092833;28;20427;-73
2023/05/22 10:46:20;;;;;;;5.13;3.20;;;26.80;99.90;;;;;;5080504;28;20183;-73
2023/05/22 10:48:47;;;;;;;6.13;3.60;;;27.00;99.90;;;;;;5072123;28;20431;-72
2023/05/22 10:51:18;;;;;;;7.70;3.77;;;27.10;99.90;;;;;;5088387;28;20438;-71
2023/05/22 10:53:44;;;;;;;7.60;4.30;;;27.00;99.90;;;;;;5093453;28;20965;-72
2023/05/22 10:56:13;;;;;;;4.27;3.60;;;26.80;99.90;;;;;;5087486;28;20419;-72
2023/05/22 10:58:44;;;;;;;8.10;3.07;;;26.60;99.90;;;;;;5093438;28;20749;-72
2023/05/22 11:01:12;;;;;;;3.80;3.50;;;26.20;99.90;;;;;;5080453;28;20446;-72
2023/05/22 11:03:53;;;;;;;4.90;3.87;;;25.80;99.90;;;;;;5091162;28;20503;-72
2023/05/22 11:06:48;;;;;;;4.47;4.00;;;25.50;99.90;;;;;;5080320;28;20507;-72
2023/05/22 11:09:37;;;;;;;8.57;3.73;;;25.30;99.90;;;;;;5073839;28;20393;-72
2023/05/22 11:12:20;;;;;;;6.60;3.83;;;25.10;99.90;;;;;;5091780;28;20451;-72
2023/05/22 11:14:54;;;;;;;4.47;4.17;;;25.00;99.90;;;;;;5073012;28;20450;-73
2023/05/22 11:17:39;;;;;;;4.53;4.13;;;24.90;99.90;;;;;;5074768;28;20392;-73
2023/05/22 11:20:17;;;;;;;7.93;3.90;;;24.90;99.90;;;;;;5077798;28;20911;-77
2023/05/22 11:22:58;;;;;;;5.67;4.10;;;25.00;99.90;;;;;;5086452;28;20452;-72
2023/05/22 11:25:26;;;;;;;5.00;4.57;;;25.00;99.90;;;;;;5090680;28;20481;-72
2023/05/22 11:27:53;;;;;;;5.47;4.67;;;25.00;99.90;;;;;;5080678;28;20504;-72
2023/05/22 11:30:19;;;;;;;5.03;4.63;;;25.00;99.90;;;;;;5092385;28;20400;-74
2023/05/22 11:32:46;;;;;;;4.90;4.50;;;24.90;99.90;;;;;;5091697;28;20474;-71
2023/05/22 11:35:17;;;;;;;6.00;5.43;;;24.90;99.90;;;;;;5093166;28;20403;-73
2023/05/22 11:37:43;;;;;;;7.30;5.33;;;24.80;99.90;;;;;;5092075;28;20884;-71
2023/05/22 11:40:10;;;;;;;4.93;4.43;;;24.50;99.90;;;;;;5092408;28;20460;-71
2023/05/22 11:42:36;;;;;;;7.03;4.47;;;24.20;99.90;;;;;;5093093;28;20189;-72
2023/05/22 11:45:03;;;;;;;6.10;4.70;;;24.10;99.90;;;;;;5096776;28;20407;-72
2023/05/22 11:47:29;;;;;;;5.27;4.77;;;23.90;99.90;;;;;;5097062;28;20404;-72
2023/05/22 11:49:58;;;;;;;5.37;4.97;;;23.80;99.90;;;;;;5096637;28;20494;-72
2023/05/22 11:52:24;;;;;;;7.10;5.53;;;23.50;99.90;;;;;;5096019;28;20443;-73
2023/05/22 11:54:53;;;;;;;7.33;5.40;;;23.30;99.90;;;;;;5096703;28;20499;-71
2023/05/22 11:57:19;;;;;;;5.80;5.30;;;23.20;99.90;;;;;;5095522;28;20407;-72
2023/05/22 11:59:48;;;;;;;6.67;5.73;;;23.00;99.90;;;;;;5096863;28;20949;-72
2023/05/22 12:02:15;;;;;;;6.20;5.40;;;22.80;99.90;;;;;;5095815;28;20403;-72
2023/05/22 12:04:41;;;;;;;6.63;6.10;;;22.70;99.90;;;;;;5096091;28;20476;-72
2023/05/22 12:07:08;;;;;;;5.57;5.17;;;22.70;99.90;;;;;;5096555;28;20407;-72
2023/05/22 12:09:33;;;;;;;5.60;5.20;;;22.80;99.90;;;;;;5096515;28;20170;-72
2023/05/22 12:11:59;;;;;;;8.27;5.50;;;22.90;99.90;;;;;;5095492;28;20446;-72
2023/05/22 12:14:26;;;;;;;8.17;5.47;;;22.90;99.90;;;;;;5096408;28;20186;-72
2023/05/22 12:16:52;;;;;;;6.00;5.40;;;22.80;99.90;;;;;;5096151;28;20157;-74
2023/05/22 12:19:18;;;;;;;5.80;5.20;;;22.80;99.90;;;;;;5096406;28;20402;-72
2023/05/22 12:21:44;;;;;;;6.00;5.40;;;22.70;99.90;;;;;;5093926;28;20197;-73
2023/05/22 12:24:10;;;;;;;10.73;5.67;;;22.50;99.90;;;;;;5095915;28;20266;-71
2023/05/22 12:26:36;;;;;;;5.90;5.30;;;22.50;99.90;;;;;;5094989;28;20407;-72
2023/05/22 12:29:03;;;;;;;9.57;6.03;;;22.60;99.90;;;;;;5096149;28;20396;-70
2023/05/22 12:31:37;;;;;;;5.20;4.70;;;22.60;99.90;;;;;;5095022;28;20522;-70
2023/05/22 12:34:07;;;;;;;6.60;5.50;;;22.40;99.90;;;;;;5095948;28;20900;-72
2023/05/22 12:36:40;;;;;;;5.43;4.93;;;22.20;99.90;;;;;;5095943;28;20403;-71
2023/05/22 12:39:08;;;;;;;5.30;4.90;;;22.00;99.90;;;;;;5095889;28;20431;-69
2023/05/22 12:41:34;;;;;;;5.90;5.30;;;21.80;99.90;;;;;;5094981;28;20435;-69
2023/05/22 12:44:00;;;;;;;7.00;6.20;;;21.80;99.90;;;;;;5095350;28;20430;-72